createdAt,value
2018-06-02T00:03:23.143Z,65.10
2018-06-02T00:08:26.765Z,66.50
2018-06-02T00:13:29.986Z,66.00
2018-06-02T00:18:32.986Z,66.30
2018-06-02T00:23:36.622Z,66.90
2018-06-02T00:28:39.377Z,66.40
2018-06-02T00:33:44.060Z,66.40
2018-06-02T00:38:48.298Z,66.90
2018-06-02T00:43:51.815Z,66.40
2018-06-02T00:48:54.721Z,66.50
2018-06-02T00:53:58.555Z,66.50
2018-06-02T00:59:02.215Z,66.90
2018-06-02T01:04:07.162Z,66.90
2018-06-02T01:09:10.549Z,66.70
2018-06-02T01:14:14.784Z,66.20
2018-06-02T01:19:18.402Z,65.90
2018-06-02T01:24:21.922Z,66.10
2018-06-02T01:29:35.682Z,67.40
2018-06-02T01:34:39.304Z,67.90
2018-06-02T01:39:42.926Z,68.30
2018-06-02T01:44:48.525Z,68.70
2018-06-02T01:49:51.132Z,67.80
2018-06-02T01:54:55.785Z,68.20
2018-06-02T01:59:58.384Z,68.80
2018-06-02T02:05:01.755Z,69.40
2018-06-02T02:10:05.453Z,68.50
2018-06-02T02:15:08.288Z,69.20
2018-06-02T02:20:11.020Z,68.30
2018-06-02T02:25:13.904Z,68.10
2018-06-02T02:35:25.800Z,69.30
2018-06-02T02:40:28.651Z,70.20
2018-06-02T02:45:31.666Z,70.70
2018-06-02T02:50:35.279Z,71.00
2018-06-02T02:55:38.286Z,70.80
2018-06-02T03:00:42.111Z,71.30
2018-06-02T03:05:46.395Z,70.60
2018-06-02T03:10:49.846Z,71.20
2018-06-02T03:15:53.396Z,70.90
2018-06-02T03:20:57.219Z,70.80
2018-06-02T03:26:02.528Z,70.90
2018-06-02T03:31:05.487Z,70.80
2018-06-02T03:36:09.583Z,71.20
2018-06-02T03:41:14.269Z,71.20
2018-06-02T03:46:17.172Z,71.10
2018-06-02T03:51:21.616Z,71.30
2018-06-02T03:56:24.418Z,71.40
2018-06-02T04:01:27.745Z,71.50
2018-06-02T04:06:30.543Z,71.80
2018-06-02T04:11:33.871Z,71.60
2018-06-02T04:16:39.389Z,72.40
2018-06-02T04:21:43.022Z,71.80
2018-06-02T04:26:47.797Z,72.30
2018-06-02T04:31:50.603Z,72.20
2018-06-02T04:36:55.140Z,72.50
2018-06-02T04:41:58.148Z,72.50
2018-06-02T04:47:02.079Z,72.80
2018-06-02T04:52:07.751Z,72.60
2018-06-02T04:57:10.896Z,72.70
2018-06-02T05:02:16.220Z,73.00
2018-06-02T05:07:19.950Z,73.30
2018-06-02T05:12:25.931Z,73.20
2018-06-02T05:17:29.448Z,74.60
2018-06-02T05:22:33.005Z,74.90
2018-06-02T05:27:35.990Z,74.40
2018-06-02T05:32:38.765Z,74.10
2018-06-02T05:37:41.578Z,74.40
2018-06-02T05:42:44.898Z,74.60
2018-06-02T05:47:48.899Z,74.50
2018-06-02T05:52:51.571Z,74.40
2018-06-02T05:57:57.809Z,74.00
2018-06-02T06:03:00.749Z,73.00
2018-06-02T06:08:05.020Z,72.30
2018-06-02T06:13:09.005Z,70.90
2018-06-02T06:18:14.332Z,69.90
2018-06-02T06:23:16.912Z,69.90
2018-06-02T06:28:20.781Z,69.90
2018-06-02T06:33:23.670Z,68.90
2018-06-02T06:38:27.198Z,67.70
2018-06-02T06:43:30.002Z,66.60
2018-06-02T06:48:34.695Z,67.60
2018-06-02T06:53:38.201Z,67.20
2018-06-02T06:58:40.976Z,67.10
2018-06-02T07:03:44.083Z,67.20
2018-06-02T07:08:47.397Z,66.60
2018-06-02T07:13:50.510Z,65.90
2018-06-02T07:18:53.360Z,65.10
2018-06-02T07:23:58.268Z,62.50
2018-06-02T07:29:01.068Z,62.40
2018-06-02T07:34:04.284Z,63.10
2018-06-02T07:39:07.817Z,63.00
2018-06-02T07:44:10.608Z,62.20
2018-06-02T07:49:13.613Z,62.20
2018-06-02T07:54:16.518Z,62.50
2018-06-02T07:59:19.322Z,61.30
2018-06-02T08:04:23.456Z,61.30
2018-06-02T08:09:29.073Z,59.80
2018-06-02T08:14:31.929Z,60.40
2018-06-02T08:19:35.284Z,59.80
2018-06-02T08:24:37.982Z,59.50
2018-06-02T08:29:41.482Z,59.30
2018-06-02T08:34:44.268Z,59.50
2018-06-02T08:39:47.569Z,58.20
2018-06-02T08:44:50.217Z,58.40
2018-06-02T08:49:53.995Z,56.60
2018-06-02T08:54:57.388Z,56.40
2018-06-02T09:00:00.948Z,56.40
2018-06-02T09:05:04.883Z,56.30
2018-06-02T09:10:09.004Z,56.20
2018-06-02T09:15:13.351Z,55.80
2018-06-02T09:20:16.871Z,55.30
2018-06-02T09:25:19.778Z,55.30
2018-06-02T09:30:23.502Z,55.60
2018-06-02T09:35:26.987Z,54.50
2018-06-02T09:40:31.355Z,54.20
2018-06-02T09:45:36.010Z,52.70
2018-06-02T09:50:39.839Z,51.80
2018-06-02T09:55:43.332Z,51.80
2018-06-02T10:00:48.075Z,50.50
2018-06-02T10:05:54.914Z,51.40
2018-06-02T10:10:58.605Z,51.70
2018-06-02T10:16:02.081Z,51.30
2018-06-02T10:21:04.852Z,49.60
2018-06-02T10:26:08.060Z,46.60
2018-06-02T10:31:10.965Z,46.40
2018-06-02T10:36:15.900Z,47.10
2018-06-02T10:41:19.305Z,44.30
2018-06-02T10:46:22.941Z,44.30
2018-06-02T10:51:26.411Z,43.30
2018-06-02T10:56:29.334Z,42.70
2018-06-02T11:01:32.700Z,42.30
2018-06-02T11:06:36.220Z,40.90
2018-06-02T11:11:39.766Z,40.20
2018-06-02T11:16:42.647Z,39.80
2018-06-02T11:21:47.294Z,39.50
2018-06-02T11:26:50.097Z,39.10
2018-06-02T11:31:53.936Z,40.20
2018-06-02T11:36:56.729Z,41.00
2018-06-02T11:41:59.528Z,38.40
2018-06-02T11:47:02.331Z,37.50
2018-06-02T11:52:05.863Z,37.90
2018-06-02T11:57:12.088Z,35.80
2018-06-02T12:02:16.068Z,36.40
2018-06-02T12:07:21.420Z,35.70
2018-06-02T12:12:24.946Z,36.00
2018-06-02T12:17:27.650Z,34.90
2018-06-02T12:22:31.178Z,35.60
2018-06-02T12:27:34.226Z,35.70
2018-06-02T12:32:37.187Z,34.20
2018-06-02T12:37:40.815Z,34.80
2018-06-02T12:42:43.924Z,35.70
2018-06-02T12:47:48.876Z,36.20
2018-06-02T12:52:52.495Z,33.40
2018-06-02T12:57:55.405Z,33.40
2018-06-02T13:02:58.618Z,33.70
2018-06-02T13:08:01.624Z,34.20
2018-06-02T13:13:04.562Z,34.80
2018-06-02T13:18:09.870Z,34.30
2018-06-02T13:23:16.095Z,35.00
2018-06-02T13:28:18.849Z,35.00
2018-06-02T13:33:22.551Z,35.20
2018-06-02T13:38:25.280Z,35.00
2018-06-02T13:43:28.133Z,33.00
2018-06-02T13:48:31.325Z,33.30
2018-06-02T13:53:33.929Z,30.40
2018-06-02T13:58:36.535Z,33.00
2018-06-02T14:03:39.219Z,33.80
2018-06-02T14:08:45.286Z,33.20
2018-06-02T14:13:49.974Z,34.10
2018-06-02T14:18:53.690Z,32.30
2018-06-02T14:23:56.583Z,32.70
2018-06-02T14:29:01.835Z,30.80
2018-06-02T14:34:06.183Z,32.30
2018-06-02T14:39:09.898Z,33.70
2018-06-02T14:44:15.364Z,30.90
2018-06-02T14:49:19.746Z,31.60
2018-06-02T14:54:22.609Z,31.60
2018-06-02T14:59:25.519Z,29.70
2018-06-02T15:04:29.396Z,31.10
2018-06-02T15:09:33.316Z,30.90
2018-06-02T15:14:36.281Z,31.70
2018-06-02T15:19:39.140Z,31.50
2018-06-02T15:24:43.367Z,31.20
2018-06-02T15:29:46.244Z,30.40
2018-06-02T15:34:51.106Z,30.20
2018-06-02T15:39:55.668Z,31.10
2018-06-02T15:45:00.368Z,31.30
2018-06-02T15:50:03.378Z,30.00
2018-06-02T15:55:06.227Z,30.00
2018-06-02T16:00:09.225Z,29.40
2018-06-02T16:05:13.258Z,29.90
2018-06-02T16:10:17.906Z,29.90
2018-06-02T16:15:20.874Z,29.40
2018-06-02T16:20:24.402Z,30.00
2018-06-02T16:25:29.358Z,30.00
2018-06-02T16:30:32.880Z,28.40
2018-06-02T16:35:36.696Z,28.00
2018-06-02T16:40:40.318Z,28.50
2018-06-02T16:45:43.326Z,28.50
2018-06-02T16:50:47.785Z,28.30
2018-06-02T16:55:50.775Z,27.90
2018-06-02T17:00:53.886Z,29.60
2018-06-02T17:05:56.819Z,29.40
2018-06-02T17:10:59.627Z,30.40
2018-06-02T17:16:04.092Z,29.60
2018-06-02T17:21:06.970Z,29.80
2018-06-02T17:26:10.258Z,31.00
2018-06-02T17:31:14.756Z,32.20
2018-06-02T17:36:20.164Z,32.10
2018-06-02T17:41:23.076Z,32.10
2018-06-02T17:46:40.764Z,32.70
2018-06-02T17:51:43.648Z,32.70
2018-06-02T17:56:47.783Z,32.90
2018-06-02T18:01:51.276Z,33.40
2018-06-02T18:06:54.299Z,34.10
2018-06-02T18:11:59.618Z,34.20
2018-06-02T18:17:03.174Z,34.70
2018-06-02T18:22:08.986Z,37.00
2018-06-02T18:27:13.556Z,39.00
2018-06-02T18:32:17.316Z,40.30
2018-06-02T18:37:20.017Z,40.20
2018-06-02T18:42:23.231Z,41.30
2018-06-02T18:47:27.765Z,42.10
2018-06-02T18:52:30.479Z,42.60
2018-06-02T18:57:37.384Z,44.80
2018-06-02T19:02:40.128Z,44.40
2018-06-02T19:07:43.000Z,45.70
2018-06-02T19:12:45.995Z,46.20
2018-06-02T19:17:49.722Z,46.60
2018-06-02T19:22:53.782Z,47.10
2018-06-02T19:27:58.188Z,45.00
2018-06-02T19:33:01.511Z,45.60
2018-06-02T19:38:05.049Z,45.80
2018-06-02T19:43:07.848Z,45.80
2018-06-02T19:48:10.768Z,45.90
2018-06-02T19:53:13.639Z,45.70
2018-06-02T19:58:16.867Z,46.20
2018-06-02T20:03:20.951Z,46.60
2018-06-02T20:08:24.579Z,47.10
2018-06-02T20:13:28.949Z,47.80
2018-06-02T20:18:33.101Z,47.90
2018-06-02T20:23:36.020Z,48.70
2018-06-02T20:28:38.842Z,48.60
2018-06-02T20:33:44.916Z,49.30
2018-06-02T20:38:47.775Z,49.30
2018-06-02T20:43:53.958Z,50.90
2018-06-02T20:48:56.966Z,51.90
2018-06-02T20:54:00.590Z,52.50
2018-06-02T20:59:05.559Z,53.10
2018-06-02T21:04:08.660Z,53.00
2018-06-02T21:09:11.705Z,53.10
2018-06-02T21:14:15.385Z,53.50
2018-06-02T21:19:18.396Z,53.40
2018-06-02T21:24:21.198Z,53.90
2018-06-02T21:29:24.574Z,54.50
2018-06-02T21:34:27.857Z,54.50
2018-06-02T21:39:37.583Z,54.70
2018-06-02T21:44:42.340Z,54.70
2018-06-02T21:49:45.151Z,56.20
2018-06-02T21:54:48.909Z,55.60
2018-06-02T21:59:53.862Z,55.90
2018-06-02T22:05:00.109Z,56.20
2018-06-02T22:10:03.607Z,56.20
2018-06-02T22:15:08.223Z,56.30
2018-06-02T22:20:11.229Z,56.30
2018-06-02T22:25:13.884Z,56.60
2018-06-02T22:30:17.248Z,56.90
2018-06-02T22:35:19.949Z,56.90
2018-06-02T22:40:23.517Z,57.90
2018-06-02T22:45:27.253Z,58.00
2018-06-02T22:50:31.893Z,58.10
2018-06-02T22:55:35.573Z,58.10
2018-06-02T23:00:38.322Z,58.60
2018-06-02T23:05:41.944Z,59.20
2018-06-02T23:10:46.231Z,59.60
2018-06-02T23:15:48.897Z,59.40
2018-06-02T23:20:53.028Z,59.80
2018-06-02T23:25:56.748Z,60.00
2018-06-02T23:30:59.891Z,60.00
2018-06-02T23:36:02.753Z,60.20
2018-06-02T23:41:05.612Z,60.40
2018-06-02T23:46:08.769Z,60.20
2018-06-02T23:51:11.574Z,60.10
2018-06-02T23:56:16.323Z,60.30
